Time;durP1;ratioP1;P1;durP2;ratioP2;P2;SDS_P1;SDS_P2;PMS_P1;PMS_P2;Temp;Humidity;BMP_temperature;BMP_pressure;BME280_temperature;BME280_humidity;BME280_pressure;Samples;Min_cycle;Max_cycle;Signal;HPM_P1;HPM_P2
2023/03/20 00:01:13;;;;;;;8.30;3.38;;;;;;;15.28;58.95;96831.91;5042277;28;20021;-32
2023/03/20 00:03:38;;;;;;;5.97;3.38;;;;;;;15.23;59.10;96824.28;5044590;28;20025;-33
2023/03/20 00:06:04;;;;;;;8.25;3.47;;;;;;;15.05;59.53;96819.50;5041650;28;20024;-33
2023/03/20 00:08:31;;;;;;;8.27;3.28;;;;;;;15.12;59.37;96826.66;5046905;28;20022;-33
2023/03/20 00:10:57;;;;;;;7.43;3.20;;;;;;;15.12;59.43;96829.38;5046178;28;20056;-34
2023/03/20 00:13:27;;;;;;;7.68;2.92;;;;;;;15.07;59.52;96827.25;5040773;28;20060;-32
2023/03/20 00:15:53;;;;;;;6.70;2.90;;;;;;;15.08;59.55;96834.25;5045139;28;20029;-32
2023/03/20 00:18:22;;;;;;;7.55;2.97;;;;;;;15.12;59.61;96826.66;5042408;28;20029;-32
2023/03/20 00:20:49;;;;;;;5.50;2.85;;;;;;;15.26;59.04;96828.88;5044354;28;20045;-32
2023/03/20 00:23:15;;;;;;;7.63;3.58;;;;;;;15.09;59.90;96822.06;5047115;28;20091;-32
2023/03/20 00:25:43;;;;;;;4.97;2.92;;;;;;;15.16;59.39;96818.34;5046627;28;20056;-32
2023/03/20 00:28:27;;;;;;;7.47;3.30;;;;;;;15.32;59.12;96820.88;5045648;28;20028;-32
2023/03/20 00:30:52;;;;;;;8.50;3.08;;;;;;;15.16;59.45;96821.06;5045367;28;20499;-33
2023/03/20 00:33:17;;;;;;;4.80;2.65;;;;;;;15.25;59.18;96826.56;5043739;28;20029;-32
2023/03/20 00:35:43;;;;;;;7.78;3.10;;;;;;;15.22;59.80;96822.00;5042092;28;20028;-32
2023/03/20 00:38:08;;;;;;;4.65;2.97;;;;;;;15.19;59.68;96823.69;5045437;28;20031;-32
2023/03/20 00:40:34;;;;;;;5.53;3.47;;;;;;;15.22;59.50;96828.22;5046179;28;20460;-32
2023/03/20 00:43:01;;;;;;;10.48;3.33;;;;;;;15.24;59.38;96825.06;5046583;28;20022;-33
2023/03/20 00:45:29;;;;;;;7.65;3.25;;;;;;;15.24;59.77;96825.81;5043795;28;20063;-32
2023/03/20 00:47:56;;;;;;;7.15;2.90;;;;;;;15.18;60.25;96813.97;5035862;28;20052;-33
2023/03/20 00:50:31;;;;;;;7.25;3.40;;;;;;;15.23;59.77;96818.81;5035933;28;20045;-33
2023/03/20 00:52:58;;;;;;;5.57;3.15;;;;;;;15.01;60.65;96798.97;5044521;28;20087;-33
2023/03/20 00:55:26;;;;;;;8.82;3.30;;;;;;;15.22;60.29;96800.91;5037679;28;20025;-34
2023/03/20 00:57:59;;;;;;;10.23;3.40;;;;;;;15.22;60.71;96794.69;5049427;28;20017;-33
2023/03/20 01:00:38;;;;;;;11.77;3.75;;;;;;;15.25;59.92;96783.63;5043349;28;20465;-33
2023/03/20 01:03:22;;;;;;;10.55;4.00;;;;;;;15.15;60.74;96782.06;5042684;28;20037;-33
2023/03/20 01:05:49;;;;;;;8.80;3.25;;;;;;;15.00;61.09;96778.31;5042958;28;20073;-33
2023/03/20 01:08:17;;;;;;;9.50;3.90;;;;;;;15.15;60.72;96762.94;5034229;28;20083;-33
2023/03/20 01:10:49;;;;;;;7.65;3.33;;;;;;;15.20;60.61;96748.72;5042694;28;20108;-33
2023/03/20 01:13:21;;;;;;;4.38;3.13;;;;;;;15.16;60.55;96742.59;5047505;28;20032;-34
2023/03/20 01:15:48;;;;;;;7.63;4.32;;;;;;;15.45;59.96;96743.00;5044335;28;20564;-33
2023/03/20 01:18:15;;;;;;;9.07;3.50;;;;;;;15.26;60.37;96730.50;5035380;28;20061;-33
2023/03/20 01:20:41;;;;;;;6.25;3.22;;;;;;;15.16;60.87;96726.22;5042495;28;20021;-34
2023/03/20 01:23:07;;;;;;;8.40;3.00;;;;;;;15.30;60.03;96713.97;5042488;28;20171;-33
2023/03/20 01:25:33;;;;;;;6.70;3.88;;;;;;;15.39;60.04;96709.28;5040902;28;20096;-33
2023/03/20 01:27:59;;;;;;;9.25;4.07;;;;;;;15.39;59.87;96709.28;5036484;28;20052;-34
2023/03/20 01:30:30;;;;;;;6.70;3.83;;;;;;;15.14;60.53;96708.75;5042409;28;20018;-33
2023/03/20 01:32:56;;;;;;;6.95;3.30;;;;;;;14.99;60.97;96701.09;5042012;28;20024;-33
2023/03/20 01:35:26;;;;;;;11.13;4.00;;;;;;;15.28;59.87;96689.84;5041967;28;20373;-33
2023/03/20 01:37:53;;;;;;;9.23;4.10;;;;;;;15.12;60.62;96689.31;5035175;28;20100;-33
2023/03/20 01:40:30;;;;;;;8.00;3.80;;;;;;;15.31;60.02;96693.66;5042361;28;20029;-33
2023/03/20 01:42:56;;;;;;;9.90;4.00;;;;;;;15.37;59.46;96689.84;5041693;28;20028;-33
2023/03/20 01:45:25;;;;;;;8.20;4.32;;;;;;;15.18;60.36;96690.25;5041934;28;20025;-33
2023/03/20 01:47:51;;;;;;;15.02;4.55;;;;;;;15.17;60.15;96677.81;5039931;28;20147;-33
2023/03/20 01:50:22;;;;;;;10.18;4.03;;;;;;;15.31;59.84;96688.94;5036267;28;20029;-33
2023/03/20 01:52:50;;;;;;;9.02;4.20;;;;;;;15.32;59.49;96695.16;5042727;28;20565;-33
2023/03/20 01:55:16;;;;;;;8.05;3.95;;;;;;;15.20;59.93;96694.06;5037458;28;20037;-34
2023/03/20 01:57:43;;;;;;;6.85;3.72;;;;;;;15.10;60.10;96690.50;5044914;28;20032;-33
2023/03/20 02:00:14;;;;;;;8.93;4.10;;;;;;;14.97;60.55;96691.81;5044908;28;20024;-35
2023/03/20 02:02:42;;;;;;;6.22;3.47;;;;;;;15.08;60.03;96692.94;5042009;28;22499;-33
2023/03/20 02:05:10;;;;;;;6.40;4.43;;;;;;;14.98;60.06;96699.56;5046880;28;20017;-33
2023/03/20 02:07:38;;;;;;;8.10;3.80;;;;;;;15.03;60.14;96695.50;5036143;28;20109;-34
2023/03/20 02:10:09;;;;;;;9.93;3.58;;;;;;;15.17;59.95;96686.00;5041156;28;20075;-33
2023/03/20 02:12:35;;;;;;;7.95;3.55;;;;;;;14.98;60.51;96693.34;5041277;28;20378;-33
2023/03/20 02:15:02;;;;;;;6.18;3.58;;;;;;;14.97;60.73;96686.34;5041330;28;20027;-33
2023/03/20 02:17:27;;;;;;;10.45;3.85;;;;;;;15.10;60.35;96684.28;5041238;28;20099;-33
2023/03/20 02:19:55;;;;;;;5.72;3.85;;;;;;;14.99;60.96;96698.38;5041114;28;20028;-33
2023/03/20 02:22:34;;;;;;;6.70;4.30;;;;;;;15.03;60.91;96695.50;5041084;28;20017;-33
2023/03/20 02:25:18;;;;;;;8.48;5.03;;;;;;;15.07;60.29;96693.41;5041723;28;20460;-33
2023/03/20 02:28:12;;;;;;;9.90;4.03;;;;;;;14.95;60.96;96694.25;5041464;28;20021;-35
2023/03/20 02:31:14;;;;;;;6.80;4.05;;;;;;;15.01;60.60;96689.72;5046809;28;20021;-34
2023/03/20 02:34:04;;;;;;;5.20;3.55;;;;;;;15.00;60.95;96688.19;5041447;28;20025;-33
2023/03/20 02:36:32;;;;;;;7.88;3.67;;;;;;;14.94;60.72;96687.28;5041236;28;20029;-33
2023/03/20 02:39:13;;;;;;;8.75;3.95;;;;;;;14.96;60.96;96685.59;5047922;28;20025;-34
2023/03/20 02:41:53;;;;;;;9.75;3.42;;;;;;;15.10;60.13;96685.06;5040849;28;20041;-33
2023/03/20 02:44:39;;;;;;;8.35;3.90;;;;;;;14.94;60.77;96681.81;5042103;28;20025;-33
2023/03/20 02:47:19;;;;;;;8.30;4.03;;;;;;;15.05;60.24;96682.94;5036514;28;20055;-33
2023/03/20 02:50:19;;;;;;;9.25;4.47;;;;;;;15.16;60.22;96655.19;5040962;28;20038;-34
2023/03/20 02:52:58;;;;;;;8.75;4.22;;;;;;;14.93;60.98;96655.72;5050540;28;20040;-33
2023/03/20 02:55:38;;;;;;;8.98;4.57;;;;;;;15.18;60.18;96655.50;5049911;28;20125;-35
2023/03/20 02:58:13;;;;;;;8.20;4.15;;;;;;;15.12;60.65;96660.03;5050283;28;20018;-33
2023/03/20 03:00:38;;;;;;;7.80;3.72;;;;;;;14.89;61.55;96663.28;5049790;28;20559;-33
2023/03/20 03:03:10;;;;;;;8.73;4.03;;;;;;;14.85;61.44;96660.66;5050177;28;20028;-33
2023/03/20 03:06:00;;;;;;;9.80;4.68;;;;;;;14.93;61.38;96666.63;5049783;28;20065;-33
2023/03/20 03:08:32;;;;;;;13.57;4.13;;;;;;;14.88;61.74;96657.06;5038907;28;20159;-33
2023/03/20 03:11:04;;;;;;;8.98;4.53;;;;;;;14.88;61.22;96661.75;5042786;28;20469;-33
2023/03/20 03:13:32;;;;;;;9.05;4.82;;;;;;;14.92;61.43;96649.50;5050499;28;20072;-33
2023/03/20 03:16:16;;;;;;;8.68;3.97;;;;;;;14.73;61.95;96640.44;5049384;28;20455;-33
2023/03/20 03:18:42;;;;;;;;;;;;;;;14.67;62.29;96646.94;5050430;28;20029;-33
2023/03/20 03:21:12;;;;;;;12.02;4.13;;;;;;;14.90;61.50;96651.16;5049868;28;19912;-33
2023/03/20 03:23:48;;;;;;;5.88;3.78;;;;;;;15.01;61.54;96649.50;5049959;28;20025;-33
2023/03/20 03:26:31;;;;;;;8.23;4.13;;;;;;;14.88;61.79;96643.41;5045144;28;20037;-34
2023/03/20 03:29:03;;;;;;;10.27;3.95;;;;;;;14.96;61.55;96639.16;5031531;28;20382;-33
2023/03/20 03:31:31;;;;;;;8.20;4.07;;;;;;;15.13;61.33;96626.03;5043549;28;20029;-33
2023/03/20 03:33:59;;;;;;;5.43;3.53;;;;;;;15.07;61.05;96623.16;5045040;28;20104;-33
2023/03/20 03:36:47;;;;;;;10.32;3.97;;;;;;;14.93;61.69;96612.78;5037624;28;20028;-33
2023/03/20 03:39:31;;;;;;;8.55;4.18;;;;;;;14.86;62.14;96618.50;5043975;28;20035;-33
2023/03/20 03:42:07;;;;;;;8.48;3.28;;;;;;;14.90;62.08;96610.19;5043964;28;20039;-33
2023/03/20 03:44:55;;;;;;;5.25;3.25;;;;;;;14.88;62.02;96609.88;5039913;28;20028;-33
2023/03/20 03:47:27;;;;;;;7.70;3.25;;;;;;;14.92;61.84;96594.88;5045276;28;20029;-33
2023/03/20 03:50:01;;;;;;;10.30;5.00;;;;;;;14.85;62.34;96576.03;5037034;28;20036;-35
2023/03/20 03:52:30;;;;;;;9.80;3.65;;;;;;;14.93;62.11;96571.06;5051375;28;20427;-34
2023/03/20 03:55:05;;;;;;;7.35;3.40;;;;;;;14.79;62.48;96585.28;5037166;28;20489;-34
2023/03/20 03:57:41;;;;;;;7.60;3.40;;;;;;;14.71;62.67;96588.25;5037757;28;20393;-33
2023/03/20 04:00:10;;;;;;;6.88;3.28;;;;;;;14.76;62.68;96578.72;5041875;28;20024;-33
2023/03/20 04:02:37;;;;;;;8.32;3.45;;;;;;;14.80;62.46;96586.78;5044525;28;20104;-34
2023/03/20 04:05:06;;;;;;;7.72;3.65;;;;;;;14.93;61.98;96577.28;5047336;28;20376;-33
2023/03/20 04:07:31;;;;;;;7.03;2.80;;;;;;;14.85;62.25;96583.47;5045668;28;20086;-33
2023/03/20 04:09:57;;;;;;;8.30;3.10;;;;;;;14.69;62.65;96585.25;5036955;28;20013;-33
2023/03/20 04:12:40;;;;;;;7.63;3.17;;;;;;;15.02;61.44;96584.72;5043608;28;20026;-33
2023/03/20 04:15:07;;;;;;;7.80;3.60;;;;;;;15.06;61.56;96582.63;5043891;28;20112;-33
2023/03/20 04:17:33;;;;;;;6.43;3.03;;;;;;;14.83;62.33;96569.53;5043439;28;20528;-34
2023/03/20 04:19:58;;;;;;;7.78;3.10;;;;;;;15.05;61.71;96570.19;5043447;28;20033;-34
2023/03/20 04:22:24;;;;;;;6.30;2.90;;;;;;;14.98;61.91;96567.72;5043590;28;20025;-33
2023/03/20 04:24:50;;;;;;;5.18;2.80;;;;;;;15.12;61.17;96566.38;5043476;28;20099;-33
2023/03/20 04:27:15;;;;;;;6.93;3.10;;;;;;;15.24;60.96;96585.38;5039229;28;20023;-33
2023/03/20 04:29:43;;;;;;;6.53;2.65;;;;;;;15.14;61.19;96586.56;5046988;28;20090;-33
2023/03/20 04:32:09;;;;;;;8.50;3.58;;;;;;;15.02;61.49;96588.22;5038363;28;20036;-33
2023/03/20 04:34:34;;;;;;;6.80;2.80;;;;;;;15.03;61.49;96583.53;5048999;28;20026;-33
2023/03/20 04:37:00;;;;;;;7.38;3.08;;;;;;;15.12;61.27;96577.31;5043023;28;20056;-33
2023/03/20 04:39:26;;;;;;;5.97;2.95;;;;;;;15.00;61.78;96565.31;5046399;28;20022;-33
2023/03/20 04:41:52;;;;;;;8.55;3.25;;;;;;;15.20;60.95;96573.09;5047357;28;20049;-33
2023/03/20 04:44:19;;;;;;;6.13;3.40;;;;;;;15.07;61.88;96581.41;5050212;28;20484;-33
2023/03/20 04:46:44;;;;;;;5.53;3.20;;;;;;;15.16;61.32;96578.69;5047426;28;20021;-34
2023/03/20 04:49:10;;;;;;;6.93;3.47;;;;;;;15.15;61.26;96576.41;5044981;28;20045;-33
2023/03/20 04:51:35;;;;;;;6.50;3.08;;;;;;;15.23;61.20;96566.69;5042612;28;20060;-33
2023/03/20 04:54:01;;;;;;;7.30;3.15;;;;;;;15.18;61.58;96573.53;5041700;28;20017;-33
2023/03/20 04:56:26;;;;;;;6.82;3.85;;;;;;;15.16;61.24;96572.47;5042852;28;20033;-34
2023/03/20 04:58:51;;;;;;;9.38;3.85;;;;;;;15.18;61.38;96576.28;5039723;28;20013;-33
2023/03/20 05:01:17;;;;;;;9.10;3.38;;;;;;;15.15;61.66;96566.25;5046126;28;20354;-33
2023/03/20 05:03:43;;;;;;;6.43;3.90;;;;;;;15.21;61.30;96558.97;5044922;28;20033;-34
2023/03/20 05:06:09;;;;;;;6.15;3.47;;;;;;;15.01;61.60;96567.59;5048194;28;20041;-33
2023/03/20 05:08:34;;;;;;;13.07;4.55;;;;;;;15.16;61.36;96570.50;5050568;28;20028;-34
2023/03/20 05:11:00;;;;;;;7.72;4.13;;;;;;;15.09;61.64;96573.50;5042740;28;20466;-33
2023/03/20 05:13:25;;;;;;;6.13;3.40;;;;;;;15.07;61.89;96571.25;5049317;28;20028;-33
2023/03/20 05:15:50;;;;;;;6.50;3.53;;;;;;;15.14;61.45;96564.72;5042924;28;20059;-33
2023/03/20 05:18:16;;;;;;;7.88;3.88;;;;;;;15.19;61.58;96574.31;5041326;28;20116;-33
2023/03/20 05:20:42;;;;;;;6.25;3.47;;;;;;;15.05;61.63;96575.63;5042421;28;20076;-34
2023/03/20 05:23:07;;;;;;;10.48;4.18;;;;;;;14.96;62.01;96567.44;5042410;28;20029;-33
2023/03/20 05:25:32;;;;;;;8.25;3.72;;;;;;;15.23;60.95;96574.91;5041025;28;20029;-34
2023/03/20 05:27:58;;;;;;;7.90;3.72;;;;;;;15.12;61.22;96575.34;5043206;28;20013;-33
2023/03/20 05:30:24;;;;;;;9.40;4.75;;;;;;;14.98;61.67;96573.94;5042444;28;20025;-33
2023/03/20 05:32:51;;;;;;;5.45;3.72;;;;;;;15.01;61.96;96566.81;5042415;28;20473;-33
2023/03/20 05:35:17;;;;;;;7.40;4.30;;;;;;;15.14;61.47;96567.47;5037608;28;20032;-33
2023/03/20 05:37:44;;;;;;;8.25;4.85;;;;;;;15.31;60.80;96563.25;5039891;28;20021;-33
2023/03/20 05:40:12;;;;;;;10.38;4.70;;;;;;;15.06;61.90;96556.06;5042395;28;20043;-34
2023/03/20 05:42:38;;;;;;;11.13;4.50;;;;;;;15.14;61.47;96553.03;5048440;28;20025;-33
2023/03/20 05:45:04;;;;;;;9.15;5.25;;;;;;;15.11;61.68;96557.44;5041948;28;20021;-33
2023/03/20 05:47:30;;;;;;;7.22;5.22;;;;;;;15.10;61.63;96567.59;5049442;28;20481;-33
2023/03/20 05:49:55;;;;;;;9.20;4.90;;;;;;;15.22;61.13;96556.97;5042118;28;20024;-33
2023/03/20 05:52:21;;;;;;;5.50;4.43;;;;;;;15.06;61.96;96574.44;5042215;28;20025;-33
2023/03/20 05:54:47;;;;;;;8.38;4.93;;;;;;;15.21;61.31;96572.63;5045075;28;20029;-35
2023/03/20 05:57:12;;;;;;;11.23;5.38;;;;;;;15.10;61.51;96573.06;5037942;28;20080;-33
2023/03/20 05:59:37;;;;;;;6.10;4.97;;;;;;;15.15;61.06;96571.72;5036665;28;20031;-33
2023/03/20 06:02:03;;;;;;;7.10;5.15;;;;;;;15.30;60.58;96578.13;5039733;28;20483;-34
2023/03/20 06:04:29;;;;;;;9.90;5.30;;;;;;;15.22;61.09;96590.53;5036958;28;20029;-33
2023/03/20 06:06:54;;;;;;;9.90;5.53;;;;;;;15.35;60.49;96602.09;5044984;28;20013;-33
2023/03/20 06:09:20;;;;;;;10.55;6.78;;;;;;;15.13;61.22;96593.25;5044778;28;20025;-33
2023/03/20 06:11:45;;;;;;;11.23;7.10;;;;;;;15.11;61.09;96592.94;5043103;28;20462;-33
2023/03/20 06:14:14;;;;;;;11.73;7.28;;;;;;;15.13;61.10;96601.44;5046426;28;20116;-33
2023/03/20 06:16:39;;;;;;;10.20;7.30;;;;;;;14.96;61.73;96597.47;5041483;28;20029;-33
2023/03/20 06:19:05;;;;;;;10.10;6.82;;;;;;;15.04;61.80;96604.16;5041599;28;20028;-33
2023/03/20 06:21:30;;;;;;;11.25;6.85;;;;;;;15.01;61.52;96602.31;5041049;28;20040;-33
2023/03/20 06:23:58;;;;;;;8.93;6.07;;;;;;;15.09;61.38;96598.09;5040891;28;20017;-33
2023/03/20 06:26:24;;;;;;;10.77;6.47;;;;;;;15.03;61.60;96591.72;5041188;28;20013;-33
2023/03/20 06:28:49;;;;;;;9.18;6.25;;;;;;;15.09;61.61;96606.28;5041575;28;20017;-33
2023/03/20 06:31:15;;;;;;;9.90;6.80;;;;;;;15.04;61.68;96598.69;5041466;28;20462;-33
2023/03/20 06:33:41;;;;;;;9.70;7.05;;;;;;;15.02;61.70;96601.88;5041113;28;20057;-34
2023/03/20 06:36:07;;;;;;;9.63;6.80;;;;;;;14.94;61.91;96608.09;5040612;28;20500;-33
2023/03/20 06:38:33;;;;;;;9.57;6.85;;;;;;;15.05;61.80;96600.97;5040928;28;20017;-33
2023/03/20 06:40:58;;;;;;;10.63;7.00;;;;;;;14.95;62.24;96601.41;5040749;28;20020;-33
2023/03/20 06:43:24;;;;;;;11.77;7.57;;;;;;;15.08;61.83;96610.25;5041091;28;20021;-33
2023/03/20 06:45:50;;;;;;;9.68;7.03;;;;;;;15.12;61.73;96616.31;5040766;28;20511;-33
2023/03/20 06:48:20;;;;;;;10.13;6.85;;;;;;;15.07;62.18;96625.13;5048416;28;20045;-33
2023/03/20 06:50:49;;;;;;;8.23;6.68;;;;;;;15.03;62.00;96627.22;5037599;28;20033;-33
2023/03/20 06:53:14;;;;;;;8.88;6.68;;;;;;;14.89;62.75;96636.72;5041729;28;20041;-33
2023/03/20 06:55:40;;;;;;;10.45;7.45;;;;;;;15.01;62.13;96629.63;5041093;28;20566;-33
2023/03/20 06:58:05;;;;;;;9.55;7.25;;;;;;;15.11;61.69;96623.00;5038509;28;20473;-33
2023/03/20 07:00:31;;;;;;;8.57;6.80;;;;;;;15.22;61.50;96625.28;5042312;28;20020;-33
2023/03/20 07:02:57;;;;;;;8.63;6.65;;;;;;;15.11;62.11;96631.19;5040543;28;20024;-33
2023/03/20 07:05:23;;;;;;;8.30;6.47;;;;;;;15.05;62.19;96633.75;5040105;28;20472;-33
2023/03/20 07:07:48;;;;;;;8.25;7.15;;;;;;;15.00;62.45;96644.50;5042964;28;20527;-33
2023/03/20 07:10:14;;;;;;;8.73;6.47;;;;;;;14.85;62.69;96640.78;5038933;28;20346;-34
2023/03/20 07:12:39;;;;;;;9.82;6.25;;;;;;;15.14;61.63;96651.38;5039405;28;20551;-33
2023/03/20 07:15:05;;;;;;;7.40;5.47;;;;;;;14.93;62.40;96669.38;5040547;28;20044;-34
2023/03/20 07:17:31;;;;;;;7.28;5.85;;;;;;;15.13;61.89;96660.78;5038827;28;20026;-33
2023/03/20 07:19:58;;;;;;;7.20;5.88;;;;;;;14.97;62.24;96659.03;5040826;28;20092;-33
2023/03/20 07:22:25;;;;;;;7.55;5.70;;;;;;;14.96;62.35;96669.22;5040308;28;20025;-33
2023/03/20 07:24:51;;;;;;;7.47;5.47;;;;;;;15.10;61.84;96663.19;5040492;28;20028;-33
2023/03/20 07:27:17;;;;;;;6.03;4.82;;;;;;;15.05;62.12;96668.50;5040226;28;20373;-34
2023/03/20 07:29:43;;;;;;;5.97;5.20;;;;;;;15.04;61.88;96665.00;5039930;28;20064;-33
2023/03/20 07:32:09;;;;;;;6.28;4.68;;;;;;;15.00;62.56;96663.63;5034127;28;20686;-33
2023/03/20 07:34:36;;;;;;;7.00;4.45;;;;;;;15.18;61.32;96666.44;5043877;28;20025;-33
2023/03/20 07:37:02;;;;;;;6.68;4.22;;;;;;;15.31;61.27;96669.06;5035503;28;20060;-33
2023/03/20 07:39:28;;;;;;;7.22;4.85;;;;;;;14.97;62.06;96672.69;5040996;28;20409;-33
2023/03/20 07:41:53;;;;;;;5.25;3.30;;;;;;;15.05;61.96;96672.00;5039813;28;20075;-33
2023/03/20 07:44:19;;;;;;;6.10;4.47;;;;;;;14.98;61.73;96666.78;5041200;28;20025;-33
2023/03/20 07:46:48;;;;;;;5.45;4.07;;;;;;;15.08;61.61;96686.75;5038928;28;20374;-33
2023/03/20 07:49:17;;;;;;;5.50;3.83;;;;;;;15.02;61.79;96691.25;5040418;28;20053;-34
2023/03/20 07:51:45;;;;;;;4.65;2.72;;;;;;;14.96;62.09;96695.78;5043603;28;20063;-33
2023/03/20 07:54:11;;;;;;;4.68;2.72;;;;;;;14.90;62.32;96695.59;5043611;28;20100;-33
2023/03/20 07:56:36;;;;;;;3.58;2.63;;;;;;;14.93;62.42;96693.94;5042253;28;20596;-34
2023/03/20 07:59:02;;;;;;;5.80;2.88;;;;;;;14.88;62.43;96689.06;5043380;28;20033;-34
2023/03/20 08:01:27;;;;;;;3.67;2.22;;;;;;;15.03;61.70;96690.81;5041762;28;20115;-33
2023/03/20 08:03:53;;;;;;;4.13;2.17;;;;;;;14.98;61.83;96691.38;5036638;28;20034;-33
2023/03/20 08:06:18;;;;;;;2.13;1.23;;;;;;;14.84;61.68;96686.44;5041115;28;20088;-33
2023/03/20 08:08:44;;;;;;;1.63;1.00;;;;;;;15.00;61.26;96686.22;5041986;28;20388;-33
2023/03/20 08:11:10;;;;;;;2.20;0.90;;;;;;;15.08;60.78;96692.19;5042976;28;20534;-33
2023/03/20 08:13:36;;;;;;;1.20;0.45;;;;;;;14.92;60.86;96697.88;5042818;28;20025;-33
2023/03/20 08:16:02;;;;;;;1.00;0.50;;;;;;;15.07;60.41;96690.69;5048258;28;20023;-33
2023/03/20 08:18:28;;;;;;;1.17;0.75;;;;;;;14.96;61.06;96687.59;5043526;28;20100;-33
2023/03/20 08:20:53;;;;;;;0.73;0.50;;;;;;;14.99;61.02;96711.25;5043585;28;20587;-33
2023/03/20 08:23:19;;;;;;;2.65;0.80;;;;;;;14.95;61.00;96699.72;5040893;28;20025;-33
2023/03/20 08:25:52;;;;;;;2.80;1.30;;;;;;;15.04;60.90;96697.03;5046177;28;20021;-34
2023/03/20 08:28:18;;;;;;;4.40;0.82;;;;;;;14.81;61.30;96694.78;5043309;28;20404;-33
2023/03/20 08:30:44;;;;;;;2.35;0.88;;;;;;;14.86;61.45;96694.97;5042728;28;20036;-33
2023/03/20 08:33:10;;;;;;;2.85;1.58;;;;;;;14.94;61.05;96698.19;5038903;28;20514;-33
2023/03/20 08:35:36;;;;;;;4.53;1.10;;;;;;;14.86;61.40;96702.38;5042042;28;20028;-33
2023/03/20 08:38:02;;;;;;;1.92;1.00;;;;;;;14.81;61.36;96694.78;5042803;28;20422;-33
2023/03/20 08:40:27;;;;;;;3.78;1.95;;;;;;;14.74;61.62;96691.13;5042909;28;20014;-33
2023/03/20 08:42:53;;;;;;;1.40;0.68;;;;;;;14.95;61.12;96697.75;5036116;28;20350;-33
2023/03/20 08:45:20;;;;;;;0.90;0.63;;;;;;;14.78;61.46;96698.41;5043434;28;20532;-34
2023/03/20 08:47:50;;;;;;;1.40;0.60;;;;;;;14.96;61.33;96696.53;5043051;28;20033;-33
2023/03/20 08:50:16;;;;;;;0.90;0.70;;;;;;;14.92;61.35;96703.34;5036340;28;20339;-33
2023/03/20 08:52:42;;;;;;;0.90;0.50;;;;;;;15.00;60.97;96701.84;5050110;28;20084;-33
2023/03/20 08:55:10;;;;;;;1.13;0.60;;;;;;;14.81;61.49;96711.19;5049643;28;20477;-33
2023/03/20 08:57:36;;;;;;;0.47;0.40;;;;;;;15.01;60.78;96711.56;5048965;28;22448;-33
2023/03/20 09:00:06;;;;;;;1.35;0.70;;;;;;;15.20;60.17;96701.50;5046337;28;20028;-33
2023/03/20 09:02:31;;;;;;;1.15;0.45;;;;;;;14.74;61.75;96707.50;5038084;28;20060;-33
2023/03/20 09:04:57;;;;;;;2.53;0.60;;;;;;;14.82;61.30;96702.53;5046008;28;20052;-33
2023/03/20 09:07:22;;;;;;;2.08;0.55;;;;;;;15.06;60.24;96692.66;5045898;28;20028;-33
2023/03/20 09:09:48;;;;;;;0.63;0.40;;;;;;;15.22;60.19;96688.88;5037513;28;20037;-33
2023/03/20 09:12:13;;;;;;;0.90;0.45;;;;;;;15.08;60.47;96692.94;5041203;28;20404;-33
2023/03/20 09:14:39;;;;;;;0.90;0.50;;;;;;;15.00;60.85;96691.69;5034467;28;20021;-34
2023/03/20 09:17:04;;;;;;;0.50;0.35;;;;;;;15.13;60.61;96694.31;5042860;28;20027;-34
2023/03/20 09:19:30;;;;;;;1.38;0.50;;;;;;;14.95;60.90;96695.03;5042321;28;20682;-33
2023/03/20 09:21:56;;;;;;;0.98;0.60;;;;;;;14.93;60.92;96705.63;5041409;28;20462;-35
2023/03/20 09:24:21;;;;;;;1.13;0.47;;;;;;;15.12;60.26;96703.72;5042477;28;20022;-33
2023/03/20 09:26:48;;;;;;;1.00;0.50;;;;;;;15.03;60.53;96704.47;5042485;28;20473;-33
2023/03/20 09:29:14;;;;;;;2.47;0.50;;;;;;;15.02;60.42;96705.66;5036837;28;20477;-33
2023/03/20 09:31:40;;;;;;;2.45;0.68;;;;;;;14.98;60.58;96705.03;5039276;28;20025;-34
2023/03/20 09:34:05;;;;;;;6.10;0.70;;;;;;;14.92;60.66;96706.84;5043232;28;20013;-34
2023/03/20 09:36:32;;;;;;;1.10;0.60;;;;;;;14.96;60.46;96707.44;5041049;28;20019;-33
2023/03/20 09:38:58;;;;;;;0.75;0.50;;;;;;;14.82;60.75;96701.78;5042663;28;20022;-34
2023/03/20 09:41:35;;;;;;;0.70;0.50;;;;;;;14.96;60.33;96715.63;5043099;28;20522;-33
2023/03/20 09:44:22;;;;;;;0.90;0.60;;;;;;;14.92;60.47;96711.53;5042391;28;20025;-35
2023/03/20 09:46:57;;;;;;;2.92;0.80;;;;;;;14.85;60.60;96709.06;5042114;28;20013;-33
2023/03/20 09:49:29;;;;;;;3.20;1.10;;;;;;;14.87;60.64;96703.91;5041829;28;20053;-33
2023/03/20 09:51:58;;;;;;;2.83;1.30;;;;;;;15.04;60.25;96702.50;5047070;28;20082;-33
2023/03/20 09:54:38;;;;;;;2.33;1.27;;;;;;;14.79;60.89;96702.66;5043443;28;20043;-33
2023/03/20 09:57:16;;;;;;;2.85;0.90;;;;;;;14.92;60.59;96704.09;5041343;28;20370;-33
2023/03/20 09:59:41;;;;;;;1.10;0.80;;;;;;;14.73;61.18;96703.25;5044647;28;20041;-33
2023/03/20 10:02:15;;;;;;;1.55;0.80;;;;;;;14.86;60.79;96700.41;5045170;28;20117;-33
2023/03/20 10:04:46;;;;;;;1.95;1.20;;;;;;;14.81;60.97;96701.03;5043448;28;20021;-33
2023/03/20 10:07:14;;;;;;;3.47;1.00;;;;;;;14.95;60.51;96700.50;5039410;28;20469;-33
2023/03/20 10:09:44;;;;;;;3.20;1.20;;;;;;;15.07;60.49;96707.06;5042735;28;20802;-33
2023/03/20 10:12:28;;;;;;;2.97;1.30;;;;;;;14.80;61.21;96706.91;5042411;28;20481;-33
2023/03/20 10:15:27;;;;;;;2.78;1.50;;;;;;;14.75;60.99;96710.97;5044047;28;20031;-33
2023/03/20 10:18:09;;;;;;;4.88;2.10;;;;;;;14.84;60.66;96705.56;5043365;28;20028;-33
2023/03/20 10:20:41;;;;;;;3.47;1.70;;;;;;;14.70;61.38;96700.66;5044448;28;20020;-33
2023/03/20 10:23:21;;;;;;;2.35;1.67;;;;;;;14.93;60.30;96694.72;5044066;28;20025;-33
2023/03/20 10:25:52;;;;;;;1.95;1.30;;;;;;;14.84;60.54;96693.88;5044346;28;20071;-34
2023/03/20 10:28:23;;;;;;;3.97;1.30;;;;;;;14.79;60.88;96692.50;5041353;28;20033;-33
2023/03/20 10:31:11;;;;;;;3.20;1.30;;;;;;;14.77;60.91;96683.25;5041203;28;20021;-33
2023/03/20 10:34:01;;;;;;;6.95;2.60;;;;;;;14.74;60.87;96687.63;5041129;28;20025;-33
2023/03/20 10:36:34;;;;;;;6.07;3.85;;;;;;;14.87;60.39;96698.44;5044521;28;20024;-34
2023/03/20 10:39:12;;;;;;;5.50;3.42;;;;;;;14.88;60.24;96678.91;5043849;28;20021;-34
2023/03/20 10:41:43;;;;;;;5.05;2.45;;;;;;;14.94;59.99;96687.28;5045249;28;20354;-34
2023/03/20 10:44:15;;;;;;;2.80;1.70;;;;;;;14.91;60.01;96685.44;5043626;28;20096;-33
2023/03/20 10:46:46;;;;;;;3.80;1.35;;;;;;;14.97;59.23;96686.34;5044878;28;20021;-33
2023/03/20 10:49:32;;;;;;;3.50;1.35;;;;;;;14.90;59.72;96681.94;5043683;28;20128;-33
2023/03/20 10:52:03;;;;;;;2.72;0.82;;;;;;;14.75;60.65;96686.41;5039541;28;20469;-33
2023/03/20 10:54:41;;;;;;;2.25;1.30;;;;;;;15.05;59.65;96682.94;5042667;28;20020;-34
2023/03/20 10:57:30;;;;;;;2.05;1.33;;;;;;;15.16;59.15;96681.75;5043507;28;20095;-33
2023/03/20 10:59:57;;;;;;;2.20;1.35;;;;;;;14.90;59.82;96665.56;5040989;28;20028;-33
2023/03/20 11:02:27;;;;;;;2.25;1.23;;;;;;;14.86;60.03;96662.19;5040284;28;20404;-33
2023/03/20 11:04:54;;;;;;;2.63;1.33;;;;;;;15.08;59.44;96653.97;5034099;28;20017;-33
2023/03/20 11:07:25;;;;;;;2.42;1.17;;;;;;;14.98;59.93;96655.09;5041333;28;20071;-33
2023/03/20 11:10:03;;;;;;;2.85;1.40;;;;;;;14.95;59.80;96656.78;5041294;28;20032;-33
2023/03/20 11:12:32;;;;;;;3.00;1.60;;;;;;;15.02;59.97;96656.50;5043373;28;20029;-33
2023/03/20 11:15:20;;;;;;;3.80;2.10;;;;;;;15.06;59.87;96651.66;5041184;28;20029;-33
2023/03/20 11:18:00;;;;;;;4.10;2.75;;;;;;;14.96;60.27;96641.16;5041348;28;20057;-33
2023/03/20 11:20:36;;;;;;;5.22;2.95;;;;;;;15.13;60.23;96636.19;5038398;28;20380;-33
2023/03/20 11:23:09;;;;;;;3.78;2.38;;;;;;;14.83;61.19;96635.03;5042325;28;20024;-33
2023/03/20 11:25:38;;;;;;;;;;;;;;;14.96;60.51;96630.25;5044300;28;20519;-33
2023/03/20 11:28:28;;;;;;;3.72;2.30;;;;;;;14.90;60.87;96621.09;5034679;28;19910;-33
2023/03/20 11:30:59;;;;;;;4.30;2.10;;;;;;;14.85;61.45;96618.94;5035519;28;20488;-33
2023/03/20 11:33:27;;;;;;;4.68;2.25;;;;;;;15.01;61.04;96610.53;5040993;28;20074;-33
2023/03/20 11:35:55;;;;;;;4.10;2.13;;;;;;;14.95;61.16;96609.59;5040152;28;20033;-34
2023/03/20 11:38:21;;;;;;;4.05;2.03;;;;;;;14.89;61.27;96595.78;5040709;28;20021;-33
2023/03/20 11:40:48;;;;;;;2.72;1.92;;;;;;;14.99;61.29;96591.09;5040204;28;20020;-33
2023/03/20 11:43:18;;;;;;;2.67;1.60;;;;;;;15.10;61.02;96592.19;5040162;28;20028;-33
2023/03/20 11:45:47;;;;;;;3.28;1.67;;;;;;;15.19;61.45;96590.69;5040182;28;20361;-33